sensor_id;sensor_type;location;lat;lon;timestamp;P1;durP1;ratioP1;P2;durP2;ratioP2
48635;SDS011;34429;52.332;5.614;2022-12-07T00:01:45;2.35;;;1.30;;
48635;SDS011;34429;52.332;5.614;2022-12-07T00:04:16;4.43;;;1.85;;
48635;SDS011;34429;52.332;5.614;2022-12-07T00:06:45;3.08;;;1.50;;
48635;SDS011;34429;52.332;5.614;2022-12-07T00:09:18;3.58;;;1.55;;
48635;SDS011;34429;52.332;5.614;2022-12-07T00:11:50;3.05;;;1.70;;
48635;SDS011;34429;52.332;5.614;2022-12-07T00:14:19;2.45;;;1.58;;
48635;SDS011;34429;52.332;5.614;2022-12-07T00:19:17;4.82;;;1.67;;
48635;SDS011;34429;52.332;5.614;2022-12-07T00:21:46;3.90;;;1.70;;
48635;SDS011;34429;52.332;5.614;2022-12-07T00:24:14;3.67;;;1.52;;
48635;SDS011;34429;52.332;5.614;2022-12-07T00:26:43;3.15;;;1.70;;
48635;SDS011;34429;52.332;5.614;2022-12-07T00:29:15;2.00;;;1.40;;
48635;SDS011;34429;52.332;5.614;2022-12-07T00:31:44;3.58;;;1.60;;
48635;SDS011;34429;52.332;5.614;2022-12-07T00:34:14;5.97;;;1.85;;
48635;SDS011;34429;52.332;5.614;2022-12-07T00:36:44;3.85;;;1.80;;
48635;SDS011;34429;52.332;5.614;2022-12-07T00:39:13;4.47;;;1.45;;
48635;SDS011;34429;52.332;5.614;2022-12-07T00:41:42;4.00;;;1.42;;
48635;SDS011;34429;52.332;5.614;2022-12-07T00:44:10;2.55;;;1.40;;
48635;SDS011;34429;52.332;5.614;2022-12-07T00:46:41;3.50;;;1.45;;
48635;SDS011;34429;52.332;5.614;2022-12-07T00:49:10;4.22;;;1.70;;
48635;SDS011;34429;52.332;5.614;2022-12-07T00:51:38;1.73;;;1.20;;
48635;SDS011;34429;52.332;5.614;2022-12-07T00:54:07;2.30;;;1.33;;
48635;SDS011;34429;52.332;5.614;2022-12-07T00:56:35;3.47;;;2.10;;
48635;SDS011;34429;52.332;5.614;2022-12-07T00:59:04;2.42;;;1.42;;
48635;SDS011;34429;52.332;5.614;2022-12-07T01:01:34;3.70;;;1.80;;
48635;SDS011;34429;52.332;5.614;2022-12-07T01:04:06;4.57;;;1.55;;
48635;SDS011;34429;52.332;5.614;2022-12-07T01:06:34;3.05;;;0.98;;
48635;SDS011;34429;52.332;5.614;2022-12-07T01:09:03;5.07;;;1.35;;
48635;SDS011;34429;52.332;5.614;2022-12-07T01:11:32;3.53;;;1.30;;
48635;SDS011;34429;52.332;5.614;2022-12-07T01:14:01;5.13;;;1.33;;
48635;SDS011;34429;52.332;5.614;2022-12-07T01:16:30;4.05;;;1.10;;
48635;SDS011;34429;52.332;5.614;2022-12-07T01:18:59;3.95;;;1.40;;
48635;SDS011;34429;52.332;5.614;2022-12-07T01:21:32;1.98;;;1.27;;
48635;SDS011;34429;52.332;5.614;2022-12-07T01:24:03;3.47;;;1.10;;
48635;SDS011;34429;52.332;5.614;2022-12-07T01:26:33;4.70;;;1.50;;
48635;SDS011;34429;52.332;5.614;2022-12-07T01:29:01;3.50;;;1.40;;
48635;SDS011;34429;52.332;5.614;2022-12-07T01:31:30;4.80;;;1.10;;
48635;SDS011;34429;52.332;5.614;2022-12-07T01:33:59;4.10;;;1.48;;
48635;SDS011;34429;52.332;5.614;2022-12-07T01:36:29;3.10;;;1.55;;
48635;SDS011;34429;52.332;5.614;2022-12-07T01:39:02;5.22;;;1.25;;
48635;SDS011;34429;52.332;5.614;2022-12-07T01:41:33;5.22;;;1.20;;
48635;SDS011;34429;52.332;5.614;2022-12-07T01:44:08;2.10;;;0.90;;
48635;SDS011;34429;52.332;5.614;2022-12-07T01:46:46;4.10;;;1.08;;
48635;SDS011;34429;52.332;5.614;2022-12-07T01:52:10;3.38;;;1.30;;
48635;SDS011;34429;52.332;5.614;2022-12-07T01:54:42;3.80;;;0.95;;
48635;SDS011;34429;52.332;5.614;2022-12-07T01:57:12;5.22;;;1.42;;
48635;SDS011;34429;52.332;5.614;2022-12-07T01:59:43;9.93;;;1.52;;
48635;SDS011;34429;52.332;5.614;2022-12-07T02:02:17;3.90;;;1.00;;
48635;SDS011;34429;52.332;5.614;2022-12-07T02:04:47;4.53;;;1.15;;
48635;SDS011;34429;52.332;5.614;2022-12-07T02:07:19;7.05;;;2.10;;
48635;SDS011;34429;52.332;5.614;2022-12-07T02:09:48;8.75;;;1.40;;
48635;SDS011;34429;52.332;5.614;2022-12-07T02:12:16;3.58;;;1.50;;
48635;SDS011;34429;52.332;5.614;2022-12-07T02:14:45;4.18;;;1.40;;
48635;SDS011;34429;52.332;5.614;2022-12-07T02:17:14;4.65;;;1.23;;
48635;SDS011;34429;52.332;5.614;2022-12-07T02:22:50;7.78;;;1.42;;
48635;SDS011;34429;52.332;5.614;2022-12-07T02:25:32;6.65;;;1.30;;
48635;SDS011;34429;52.332;5.614;2022-12-07T02:28:11;3.67;;;1.10;;
48635;SDS011;34429;52.332;5.614;2022-12-07T02:30:49;7.90;;;1.08;;
48635;SDS011;34429;52.332;5.614;2022-12-07T02:33:22;8.60;;;1.58;;
48635;SDS011;34429;52.332;5.614;2022-12-07T02:35:57;7.45;;;1.10;;
48635;SDS011;34429;52.332;5.614;2022-12-07T02:38:31;5.30;;;1.05;;
48635;SDS011;34429;52.332;5.614;2022-12-07T02:41:07;3.65;;;1.20;;
48635;SDS011;34429;52.332;5.614;2022-12-07T02:43:41;3.13;;;0.80;;
48635;SDS011;34429;52.332;5.614;2022-12-07T02:46:17;7.30;;;1.20;;
48635;SDS011;34429;52.332;5.614;2022-12-07T02:48:49;5.70;;;1.65;;
48635;SDS011;34429;52.332;5.614;2022-12-07T02:51:45;6.88;;;1.02;;
48635;SDS011;34429;52.332;5.614;2022-12-07T02:54:15;8.23;;;1.25;;
48635;SDS011;34429;52.332;5.614;2022-12-07T02:56:46;3.53;;;0.80;;
48635;SDS011;34429;52.332;5.614;2022-12-07T02:59:18;4.50;;;1.10;;
48635;SDS011;34429;52.332;5.614;2022-12-07T03:02:01;3.17;;;1.20;;
48635;SDS011;34429;52.332;5.614;2022-12-07T03:04:42;4.10;;;0.80;;
48635;SDS011;34429;52.332;5.614;2022-12-07T03:07:19;5.82;;;1.15;;
48635;SDS011;34429;52.332;5.614;2022-12-07T03:09:57;3.78;;;0.80;;
48635;SDS011;34429;52.332;5.614;2022-12-07T03:12:31;2.45;;;0.98;;
48635;SDS011;34429;52.332;5.614;2022-12-07T03:15:04;3.10;;;0.65;;
48635;SDS011;34429;52.332;5.614;2022-12-07T03:17:39;2.15;;;0.80;;
48635;SDS011;34429;52.332;5.614;2022-12-07T03:20:11;2.67;;;0.90;;
48635;SDS011;34429;52.332;5.614;2022-12-07T03:22:43;2.83;;;0.90;;
48635;SDS011;34429;52.332;5.614;2022-12-07T03:25:15;2.55;;;0.80;;
48635;SDS011;34429;52.332;5.614;2022-12-07T03:27:45;3.78;;;1.08;;
48635;SDS011;34429;52.332;5.614;2022-12-07T03:30:21;3.30;;;0.80;;
48635;SDS011;34429;52.332;5.614;2022-12-07T03:32:56;3.78;;;0.82;;
48635;SDS011;34429;52.332;5.614;2022-12-07T03:35:31;3.00;;;1.67;;
48635;SDS011;34429;52.332;5.614;2022-12-07T03:38:06;3.25;;;1.00;;
48635;SDS011;34429;52.332;5.614;2022-12-07T03:40:44;4.45;;;1.40;;
48635;SDS011;34429;52.332;5.614;2022-12-07T03:43:17;6.57;;;0.90;;
48635;SDS011;34429;52.332;5.614;2022-12-07T03:45:48;2.80;;;0.93;;
48635;SDS011;34429;52.332;5.614;2022-12-07T03:48:31;7.30;;;1.08;;
48635;SDS011;34429;52.332;5.614;2022-12-07T03:51:06;2.05;;;0.80;;
48635;SDS011;34429;52.332;5.614;2022-12-07T03:53:40;7.82;;;0.90;;
48635;SDS011;34429;52.332;5.614;2022-12-07T03:56:14;5.22;;;1.30;;
48635;SDS011;34429;52.332;5.614;2022-12-07T03:58:43;8.13;;;0.73;;
48635;SDS011;34429;52.332;5.614;2022-12-07T04:01:12;3.45;;;0.90;;
48635;SDS011;34429;52.332;5.614;2022-12-07T04:03:42;2.38;;;1.30;;
48635;SDS011;34429;52.332;5.614;2022-12-07T04:06:11;4.03;;;1.05;;
48635;SDS011;34429;52.332;5.614;2022-12-07T04:08:39;2.30;;;0.87;;
48635;SDS011;34429;52.332;5.614;2022-12-07T04:11:08;1.63;;;0.90;;
48635;SDS011;34429;52.332;5.614;2022-12-07T04:13:36;2.95;;;0.95;;
48635;SDS011;34429;52.332;5.614;2022-12-07T04:16:17;3.08;;;1.30;;
48635;SDS011;34429;52.332;5.614;2022-12-07T04:18:47;1.25;;;0.75;;
48635;SDS011;34429;52.332;5.614;2022-12-07T04:21:16;3.25;;;1.00;;
48635;SDS011;34429;52.332;5.614;2022-12-07T04:23:44;7.13;;;1.05;;
48635;SDS011;34429;52.332;5.614;2022-12-07T04:26:12;3.47;;;1.10;;
48635;SDS011;34429;52.332;5.614;2022-12-07T04:28:41;5.10;;;0.98;;
48635;SDS011;34429;52.332;5.614;2022-12-07T04:31:09;2.78;;;1.20;;
48635;SDS011;34429;52.332;5.614;2022-12-07T04:33:37;2.30;;;0.82;;
48635;SDS011;34429;52.332;5.614;2022-12-07T04:36:08;2.92;;;1.00;;
48635;SDS011;34429;52.332;5.614;2022-12-07T04:38:37;4.75;;;1.27;;
48635;SDS011;34429;52.332;5.614;2022-12-07T04:41:05;3.65;;;0.93;;
48635;SDS011;34429;52.332;5.614;2022-12-07T04:43:34;2.78;;;0.95;;
48635;SDS011;34429;52.332;5.614;2022-12-07T04:46:03;1.60;;;0.75;;
48635;SDS011;34429;52.332;5.614;2022-12-07T04:48:32;4.10;;;0.80;;
48635;SDS011;34429;52.332;5.614;2022-12-07T04:51:02;4.07;;;1.90;;
48635;SDS011;34429;52.332;5.614;2022-12-07T04:53:33;7.03;;;1.35;;
48635;SDS011;34429;52.332;5.614;2022-12-07T04:56:02;2.75;;;1.77;;
48635;SDS011;34429;52.332;5.614;2022-12-07T04:58:34;1.70;;;0.90;;
48635;SDS011;34429;52.332;5.614;2022-12-07T05:01:07;8.18;;;1.80;;
48635;SDS011;34429;52.332;5.614;2022-12-07T05:03:35;3.50;;;1.20;;
48635;SDS011;34429;52.332;5.614;2022-12-07T05:06:04;11.13;;;1.50;;
48635;SDS011;34429;52.332;5.614;2022-12-07T05:08:36;4.10;;;1.40;;
48635;SDS011;34429;52.332;5.614;2022-12-07T05:11:05;5.47;;;1.60;;
48635;SDS011;34429;52.332;5.614;2022-12-07T05:13:35;5.20;;;1.38;;
48635;SDS011;34429;52.332;5.614;2022-12-07T05:16:04;6.28;;;1.30;;
48635;SDS011;34429;52.332;5.614;2022-12-07T05:18:33;7.68;;;1.50;;
48635;SDS011;34429;52.332;5.614;2022-12-07T05:21:01;3.72;;;0.95;;
48635;SDS011;34429;52.332;5.614;2022-12-07T05:23:29;2.28;;;1.20;;
48635;SDS011;34429;52.332;5.614;2022-12-07T05:26:00;2.85;;;1.23;;
48635;SDS011;34429;52.332;5.614;2022-12-07T05:28:29;2.00;;;1.10;;
48635;SDS011;34429;52.332;5.614;2022-12-07T05:30:57;3.05;;;1.40;;
48635;SDS011;34429;52.332;5.614;2022-12-07T05:33:26;3.43;;;1.03;;
48635;SDS011;34429;52.332;5.614;2022-12-07T05:35:54;3.33;;;1.20;;
48635;SDS011;34429;52.332;5.614;2022-12-07T05:38:22;5.80;;;1.48;;
48635;SDS011;34429;52.332;5.614;2022-12-07T05:40:51;5.38;;;1.20;;
48635;SDS011;34429;52.332;5.614;2022-12-07T05:43:22;4.13;;;1.83;;
48635;SDS011;34429;52.332;5.614;2022-12-07T05:45:50;4.15;;;1.50;;
48635;SDS011;34429;52.332;5.614;2022-12-07T05:48:18;2.60;;;1.20;;
48635;SDS011;34429;52.332;5.614;2022-12-07T05:50:47;2.47;;;1.20;;
48635;SDS011;34429;52.332;5.614;2022-12-07T05:53:15;1.50;;;0.90;;
48635;SDS011;34429;52.332;5.614;2022-12-07T05:55:44;7.10;;;1.60;;
48635;SDS011;34429;52.332;5.614;2022-12-07T05:58:12;5.85;;;1.73;;
48635;SDS011;34429;52.332;5.614;2022-12-07T06:00:56;5.45;;;1.70;;
48635;SDS011;34429;52.332;5.614;2022-12-07T06:03:24;2.80;;;1.30;;
48635;SDS011;34429;52.332;5.614;2022-12-07T06:05:53;3.90;;;1.20;;
48635;SDS011;34429;52.332;5.614;2022-12-07T06:08:21;2.57;;;1.07;;
48635;SDS011;34429;52.332;5.614;2022-12-07T06:10:50;4.93;;;1.08;;
48635;SDS011;34429;52.332;5.614;2022-12-07T06:13:38;7.77;;;1.43;;
48635;SDS011;34429;52.332;5.614;2022-12-07T06:16:07;4.53;;;1.30;;
48635;SDS011;34429;52.332;5.614;2022-12-07T06:18:35;3.90;;;1.30;;
48635;SDS011;34429;52.332;5.614;2022-12-07T06:21:03;5.75;;;1.52;;
48635;SDS011;34429;52.332;5.614;2022-12-07T06:23:32;2.08;;;1.15;;
48635;SDS011;34429;52.332;5.614;2022-12-07T06:26:00;7.68;;;1.98;;
48635;SDS011;34429;52.332;5.614;2022-12-07T06:28:29;5.32;;;1.70;;
48635;SDS011;34429;52.332;5.614;2022-12-07T06:30:57;5.35;;;1.60;;
48635;SDS011;34429;52.332;5.614;2022-12-07T06:33:29;4.53;;;1.80;;
48635;SDS011;34429;52.332;5.614;2022-12-07T06:35:58;5.38;;;1.55;;
48635;SDS011;34429;52.332;5.614;2022-12-07T06:38:27;6.63;;;1.67;;
48635;SDS011;34429;52.332;5.614;2022-12-07T06:40:55;5.73;;;1.80;;
48635;SDS011;34429;52.332;5.614;2022-12-07T06:43:23;5.88;;;1.40;;
48635;SDS011;34429;52.332;5.614;2022-12-07T06:45:52;7.00;;;1.13;;
48635;SDS011;34429;52.332;5.614;2022-12-07T06:48:20;5.72;;;1.40;;
48635;SDS011;34429;52.332;5.614;2022-12-07T06:50:51;3.08;;;1.48;;
48635;SDS011;34429;52.332;5.614;2022-12-07T06:53:20;8.32;;;1.95;;
48635;SDS011;34429;52.332;5.614;2022-12-07T06:55:48;2.42;;;1.30;;
48635;SDS011;34429;52.332;5.614;2022-12-07T06:58:17;5.75;;;1.83;;
48635;SDS011;34429;52.332;5.614;2022-12-07T07:00:47;6.38;;;1.80;;
48635;SDS011;34429;52.332;5.614;2022-12-07T07:03:16;9.25;;;2.20;;
48635;SDS011;34429;52.332;5.614;2022-12-07T07:05:44;5.18;;;2.10;;
48635;SDS011;34429;52.332;5.614;2022-12-07T07:08:16;7.35;;;2.00;;
48635;SDS011;34429;52.332;5.614;2022-12-07T07:10:44;3.28;;;1.98;;
48635;SDS011;34429;52.332;5.614;2022-12-07T07:13:12;5.55;;;2.38;;
48635;SDS011;34429;52.332;5.614;2022-12-07T07:15:41;6.70;;;2.40;;
48635;SDS011;34429;52.332;5.614;2022-12-07T07:18:09;4.07;;;2.20;;
48635;SDS011;34429;52.332;5.614;2022-12-07T07:20:38;10.83;;;3.13;;
48635;SDS011;34429;52.332;5.614;2022-12-07T07:23:06;5.05;;;1.85;;
48635;SDS011;34429;52.332;5.614;2022-12-07T07:25:37;4.70;;;2.30;;
48635;SDS011;34429;52.332;5.614;2022-12-07T07:28:06;6.88;;;1.98;;
48635;SDS011;34429;52.332;5.614;2022-12-07T07:30:37;11.30;;;2.72;;
48635;SDS011;34429;52.332;5.614;2022-12-07T07:33:05;6.35;;;2.30;;
48635;SDS011;34429;52.332;5.614;2022-12-07T07:35:35;15.57;;;5.22;;
48635;SDS011;34429;52.332;5.614;2022-12-07T07:38:04;15.52;;;5.75;;
48635;SDS011;34429;52.332;5.614;2022-12-07T07:40:32;12.95;;;4.70;;
48635;SDS011;34429;52.332;5.614;2022-12-07T07:43:04;17.33;;;5.90;;
48635;SDS011;34429;52.332;5.614;2022-12-07T07:45:32;16.83;;;6.82;;
48635;SDS011;34429;52.332;5.614;2022-12-07T07:48:04;15.73;;;5.70;;
48635;SDS011;34429;52.332;5.614;2022-12-07T07:50:32;16.02;;;6.68;;
48635;SDS011;34429;52.332;5.614;2022-12-07T07:53:01;16.58;;;5.55;;
48635;SDS011;34429;52.332;5.614;2022-12-07T07:55:29;13.57;;;5.28;;
48635;SDS011;34429;52.332;5.614;2022-12-07T07:57:57;13.63;;;4.75;;
48635;SDS011;34429;52.332;5.614;2022-12-07T08:00:28;8.82;;;4.10;;
48635;SDS011;34429;52.332;5.614;2022-12-07T08:02:57;8.40;;;3.47;;
48635;SDS011;34429;52.332;5.614;2022-12-07T08:05:25;6.82;;;2.97;;
48635;SDS011;34429;52.332;5.614;2022-12-07T08:07:53;8.23;;;3.35;;
48635;SDS011;34429;52.332;5.614;2022-12-07T08:10:22;4.53;;;2.60;;
48635;SDS011;34429;52.332;5.614;2022-12-07T08:12:50;10.25;;;3.00;;
48635;SDS011;34429;52.332;5.614;2022-12-07T08:15:47;5.28;;;2.47;;
48635;SDS011;34429;52.332;5.614;2022-12-07T08:18:15;6.00;;;2.70;;
48635;SDS011;34429;52.332;5.614;2022-12-07T08:20:44;5.60;;;2.45;;
48635;SDS011;34429;52.332;5.614;2022-12-07T08:23:12;6.30;;;2.40;;
48635;SDS011;34429;52.332;5.614;2022-12-07T08:25:40;10.20;;;3.17;;
48635;SDS011;34429;52.332;5.614;2022-12-07T08:28:09;12.90;;;3.33;;
48635;SDS011;34429;52.332;5.614;2022-12-07T08:30:37;8.45;;;3.15;;
48635;SDS011;34429;52.332;5.614;2022-12-07T08:33:08;10.02;;;3.42;;
48635;SDS011;34429;52.332;5.614;2022-12-07T08:35:36;9.30;;;3.58;;
48635;SDS011;34429;52.332;5.614;2022-12-07T08:38:05;13.13;;;3.10;;
48635;SDS011;34429;52.332;5.614;2022-12-07T08:40:34;10.40;;;2.65;;
48635;SDS011;34429;52.332;5.614;2022-12-07T08:43:02;6.72;;;2.85;;
48635;SDS011;34429;52.332;5.614;2022-12-07T08:45:30;7.45;;;2.78;;
48635;SDS011;34429;52.332;5.614;2022-12-07T08:48:03;5.78;;;3.10;;
48635;SDS011;34429;52.332;5.614;2022-12-07T08:50:38;7.38;;;2.50;;
48635;SDS011;34429;52.332;5.614;2022-12-07T08:53:07;6.95;;;2.45;;
48635;SDS011;34429;52.332;5.614;2022-12-07T08:55:35;6.25;;;2.83;;
48635;SDS011;34429;52.332;5.614;2022-12-07T08:58:04;6.68;;;2.63;;
48635;SDS011;34429;52.332;5.614;2022-12-07T09:00:32;5.57;;;2.40;;
48635;SDS011;34429;52.332;5.614;2022-12-07T09:03:00;6.32;;;3.40;;
48635;SDS011;34429;52.332;5.614;2022-12-07T09:05:29;6.88;;;2.95;;
48635;SDS011;34429;52.332;5.614;2022-12-07T09:08:00;9.13;;;2.75;;
48635;SDS011;34429;52.332;5.614;2022-12-07T09:10:29;10.07;;;2.83;;
48635;SDS011;34429;52.332;5.614;2022-12-07T09:12:58;12.48;;;3.22;;
48635;SDS011;34429;52.332;5.614;2022-12-07T09:15:26;7.90;;;2.90;;
48635;SDS011;34429;52.332;5.614;2022-12-07T09:17:55;7.20;;;2.72;;
48635;SDS011;34429;52.332;5.614;2022-12-07T09:20:23;7.95;;;2.80;;
48635;SDS011;34429;52.332;5.614;2022-12-07T09:22:52;14.50;;;3.85;;
48635;SDS011;34429;52.332;5.614;2022-12-07T09:25:22;6.35;;;2.90;;
48635;SDS011;34429;52.332;5.614;2022-12-07T09:27:54;12.38;;;3.72;;
48635;SDS011;34429;52.332;5.614;2022-12-07T09:30:27;7.68;;;3.22;;
48635;SDS011;34429;52.332;5.614;2022-12-07T09:32:56;15.75;;;2.83;;
48635;SDS011;34429;52.332;5.614;2022-12-07T09:35:25;4.85;;;2.63;;
48635;SDS011;34429;52.332;5.614;2022-12-07T09:37:54;6.30;;;2.75;;
48635;SDS011;34429;52.332;5.614;2022-12-07T09:40:25;8.50;;;2.20;;
48635;SDS011;34429;52.332;5.614;2022-12-07T09:42:53;13.13;;;3.22;;
48635;SDS011;34429;52.332;5.614;2022-12-07T09:45:24;6.00;;;2.47;;
48635;SDS011;34429;52.332;5.614;2022-12-07T09:47:55;6.82;;;2.33;;
48635;SDS011;34429;52.332;5.614;2022-12-07T09:50:24;8.40;;;2.30;;
48635;SDS011;34429;52.332;5.614;2022-12-07T09:52:54;5.13;;;1.98;;
48635;SDS011;34429;52.332;5.614;2022-12-07T09:55:42;3.95;;;1.80;;
48635;SDS011;34429;52.332;5.614;2022-12-07T09:58:12;6.20;;;1.98;;
48635;SDS011;34429;52.332;5.614;2022-12-07T10:00:47;5.85;;;1.80;;
48635;SDS011;34429;52.332;5.614;2022-12-07T10:03:16;3.95;;;1.83;;
48635;SDS011;34429;52.332;5.614;2022-12-07T10:05:45;3.55;;;1.23;;
48635;SDS011;34429;52.332;5.614;2022-12-07T10:08:16;9.10;;;1.88;;
48635;SDS011;34429;52.332;5.614;2022-12-07T10:10:48;7.68;;;2.00;;
48635;SDS011;34429;52.332;5.614;2022-12-07T10:13:20;4.93;;;1.85;;
48635;SDS011;34429;52.332;5.614;2022-12-07T10:15:52;6.13;;;1.92;;
48635;SDS011;34429;52.332;5.614;2022-12-07T10:18:27;4.03;;;1.73;;
48635;SDS011;34429;52.332;5.614;2022-12-07T10:21:11;3.47;;;1.60;;
48635;SDS011;34429;52.332;5.614;2022-12-07T10:23:42;6.45;;;1.60;;
48635;SDS011;34429;52.332;5.614;2022-12-07T10:26:29;5.20;;;1.77;;
48635;SDS011;34429;52.332;5.614;2022-12-07T10:29:00;3.50;;;1.58;;
48635;SDS011;34429;52.332;5.614;2022-12-07T10:31:40;4.85;;;1.15;;
48635;SDS011;34429;52.332;5.614;2022-12-07T10:34:14;6.72;;;1.30;;
48635;SDS011;34429;52.332;5.614;2022-12-07T10:36:49;4.78;;;1.10;;
48635;SDS011;34429;52.332;5.614;2022-12-07T10:39:19;5.57;;;1.30;;
48635;SDS011;34429;52.332;5.614;2022-12-07T10:41:58;5.85;;;1.38;;
48635;SDS011;34429;52.332;5.614;2022-12-07T10:44:28;3.50;;;1.08;;
48635;SDS011;34429;52.332;5.614;2022-12-07T10:47:01;4.28;;;1.85;;
48635;SDS011;34429;52.332;5.614;2022-12-07T10:49:52;4.68;;;1.45;;
48635;SDS011;34429;52.332;5.614;2022-12-07T10:55:38;4.68;;;1.27;;
48635;SDS011;34429;52.332;5.614;2022-12-07T10:58:25;6.25;;;1.35;;
48635;SDS011;34429;52.332;5.614;2022-12-07T11:01:12;4.18;;;1.30;;
48635;SDS011;34429;52.332;5.614;2022-12-07T11:03:48;6.53;;;1.58;;
48635;SDS011;34429;52.332;5.614;2022-12-07T11:06:32;6.22;;;1.33;;
48635;SDS011;34429;52.332;5.614;2022-12-07T11:09:15;4.13;;;1.17;;
48635;SDS011;34429;52.332;5.614;2022-12-07T11:12:03;5.88;;;1.50;;
48635;SDS011;34429;52.332;5.614;2022-12-07T11:14:43;5.53;;;1.17;;
48635;SDS011;34429;52.332;5.614;2022-12-07T11:17:20;6.70;;;1.58;;
48635;SDS011;34429;52.332;5.614;2022-12-07T11:20:00;7.88;;;1.50;;
48635;SDS011;34429;52.332;5.614;2022-12-07T11:22:34;6.60;;;1.40;;
48635;SDS011;34429;52.332;5.614;2022-12-07T11:25:15;5.57;;;1.60;;
48635;SDS011;34429;52.332;5.614;2022-12-07T11:27:54;4.50;;;1.17;;
48635;SDS011;34429;52.332;5.614;2022-12-07T11:30:34;6.57;;;1.33;;
48635;SDS011;34429;52.332;5.614;2022-12-07T11:33:12;5.78;;;1.08;;
48635;SDS011;34429;52.332;5.614;2022-12-07T11:35:57;7.72;;;1.77;;
48635;SDS011;34429;52.332;5.614;2022-12-07T11:38:34;4.95;;;1.20;;
48635;SDS011;34429;52.332;5.614;2022-12-07T11:41:10;7.28;;;1.30;;
48635;SDS011;34429;52.332;5.614;2022-12-07T11:46:40;4.10;;;1.35;;
48635;SDS011;34429;52.332;5.614;2022-12-07T11:49:15;4.05;;;1.55;;
48635;SDS011;34429;52.332;5.614;2022-12-07T11:51:54;6.95;;;1.38;;
48635;SDS011;34429;52.332;5.614;2022-12-07T11:54:28;2.78;;;1.10;;
48635;SDS011;34429;52.332;5.614;2022-12-07T11:57:01;5.97;;;1.27;;
48635;SDS011;34429;52.332;5.614;2022-12-07T11:59:33;8.30;;;1.60;;
48635;SDS011;34429;52.332;5.614;2022-12-07T12:02:11;5.78;;;1.23;;
48635;SDS011;34429;52.332;5.614;2022-12-07T12:04:46;3.53;;;1.40;;
48635;SDS011;34429;52.332;5.614;2022-12-07T12:07:21;4.05;;;1.80;;
48635;SDS011;34429;52.332;5.614;2022-12-07T12:09:54;7.07;;;1.67;;
48635;SDS011;34429;52.332;5.614;2022-12-07T12:12:35;4.75;;;2.00;;
48635;SDS011;34429;52.332;5.614;2022-12-07T12:15:18;5.20;;;1.00;;
48635;SDS011;34429;52.332;5.614;2022-12-07T12:18:05;3.90;;;1.33;;
48635;SDS011;34429;52.332;5.614;2022-12-07T12:21:00;5.30;;;1.13;;
48635;SDS011;34429;52.332;5.614;2022-12-07T12:23:35;7.05;;;1.30;;
48635;SDS011;34429;52.332;5.614;2022-12-07T12:26:13;5.65;;;1.30;;
48635;SDS011;34429;52.332;5.614;2022-12-07T12:28:50;4.72;;;1.83;;
48635;SDS011;34429;52.332;5.614;2022-12-07T12:31:34;4.05;;;1.40;;
48635;SDS011;34429;52.332;5.614;2022-12-07T12:34:29;3.20;;;1.25;;
48635;SDS011;34429;52.332;5.614;2022-12-07T12:36:59;4.20;;;1.15;;
48635;SDS011;34429;52.332;5.614;2022-12-07T12:39:27;2.73;;;0.83;;
48635;SDS011;34429;52.332;5.614;2022-12-07T12:41:57;7.22;;;1.30;;
48635;SDS011;34429;52.332;5.614;2022-12-07T12:44:41;3.05;;;0.90;;
48635;SDS011;34429;52.332;5.614;2022-12-07T12:50:24;8.82;;;2.10;;
48635;SDS011;34429;52.332;5.614;2022-12-07T12:52:58;4.63;;;1.42;;
48635;SDS011;34429;52.332;5.614;2022-12-07T12:58:43;3.88;;;1.65;;
48635;SDS011;34429;52.332;5.614;2022-12-07T13:04:21;3.58;;;1.08;;
48635;SDS011;34429;52.332;5.614;2022-12-07T13:07:13;5.78;;;1.27;;
48635;SDS011;34429;52.332;5.614;2022-12-07T13:10:02;4.35;;;1.20;;
48635;SDS011;34429;52.332;5.614;2022-12-07T13:15:00;3.25;;;1.45;;
48635;SDS011;34429;52.332;5.614;2022-12-07T13:20:44;4.65;;;1.10;;
48635;SDS011;34429;52.332;5.614;2022-12-07T13:23:20;5.03;;;1.25;;
48635;SDS011;34429;52.332;5.614;2022-12-07T13:28:45;4.18;;;1.08;;
48635;SDS011;34429;52.332;5.614;2022-12-07T13:31:31;2.60;;;1.10;;
48635;SDS011;34429;52.332;5.614;2022-12-07T13:34:02;2.53;;;1.17;;
48635;SDS011;34429;52.332;5.614;2022-12-07T13:36:32;5.70;;;1.23;;
48635;SDS011;34429;52.332;5.614;2022-12-07T13:39:16;3.13;;;1.70;;
48635;SDS011;34429;52.332;5.614;2022-12-07T13:41:49;3.88;;;1.10;;
48635;SDS011;34429;52.332;5.614;2022-12-07T13:44:18;6.72;;;0.90;;
48635;SDS011;34429;52.332;5.614;2022-12-07T13:46:49;4.72;;;1.00;;
48635;SDS011;34429;52.332;5.614;2022-12-07T13:49:24;3.05;;;0.82;;
48635;SDS011;34429;52.332;5.614;2022-12-07T13:51:55;5.13;;;0.70;;
48635;SDS011;34429;52.332;5.614;2022-12-07T13:54:46;1.33;;;0.50;;
48635;SDS011;34429;52.332;5.614;2022-12-07T13:57:16;3.55;;;1.00;;
48635;SDS011;34429;52.332;5.614;2022-12-07T13:59:45;1.85;;;0.82;;
48635;SDS011;34429;52.332;5.614;2022-12-07T14:02:20;1.03;;;0.57;;
48635;SDS011;34429;52.332;5.614;2022-12-07T14:04:50;1.73;;;0.70;;
48635;SDS011;34429;52.332;5.614;2022-12-07T14:07:34;1.00;;;0.77;;
48635;SDS011;34429;52.332;5.614;2022-12-07T14:10:06;3.17;;;1.20;;
48635;SDS011;34429;52.332;5.614;2022-12-07T14:12:51;2.05;;;0.80;;
48635;SDS011;34429;52.332;5.614;2022-12-07T14:15:20;4.90;;;1.13;;
48635;SDS011;34429;52.332;5.614;2022-12-07T14:17:51;2.22;;;0.80;;
48635;SDS011;34429;52.332;5.614;2022-12-07T14:20:31;2.50;;;1.23;;
48635;SDS011;34429;52.332;5.614;2022-12-07T14:23:01;2.05;;;0.60;;
48635;SDS011;34429;52.332;5.614;2022-12-07T14:25:43;1.67;;;0.75;;
48635;SDS011;34429;52.332;5.614;2022-12-07T14:28:25;2.53;;;1.52;;
48635;SDS011;34429;52.332;5.614;2022-12-07T14:30:54;2.45;;;1.90;;
48635;SDS011;34429;52.332;5.614;2022-12-07T14:33:22;2.97;;;1.88;;
48635;SDS011;34429;52.332;5.614;2022-12-07T14:35:51;3.28;;;1.30;;
48635;SDS011;34429;52.332;5.614;2022-12-07T14:38:25;1.50;;;1.00;;
48635;SDS011;34429;52.332;5.614;2022-12-07T14:40:56;4.93;;;1.00;;
48635;SDS011;34429;52.332;5.614;2022-12-07T14:43:45;1.30;;;0.90;;
48635;SDS011;34429;52.332;5.614;2022-12-07T14:46:14;2.20;;;0.80;;
48635;SDS011;34429;52.332;5.614;2022-12-07T14:48:42;0.98;;;0.60;;
48635;SDS011;34429;52.332;5.614;2022-12-07T14:51:11;3.53;;;1.15;;
48635;SDS011;34429;52.332;5.614;2022-12-07T14:56:14;3.25;;;1.10;;
48635;SDS011;34429;52.332;5.614;2022-12-07T14:58:42;8.50;;;2.83;;
48635;SDS011;34429;52.332;5.614;2022-12-07T15:01:13;7.45;;;2.90;;
48635;SDS011;34429;52.332;5.614;2022-12-07T15:03:41;10.30;;;3.60;;
48635;SDS011;34429;52.332;5.614;2022-12-07T15:06:10;10.00;;;3.75;;
48635;SDS011;34429;52.332;5.614;2022-12-07T15:08:42;10.40;;;1.90;;
48635;SDS011;34429;52.332;5.614;2022-12-07T15:11:14;5.30;;;2.08;;
48635;SDS011;34429;52.332;5.614;2022-12-07T15:13:44;3.50;;;1.63;;
48635;SDS011;34429;52.332;5.614;2022-12-07T15:16:24;3.05;;;1.60;;
48635;SDS011;34429;52.332;5.614;2022-12-07T15:18:53;5.05;;;2.00;;
48635;SDS011;34429;52.332;5.614;2022-12-07T15:21:21;5.55;;;2.35;;
48635;SDS011;34429;52.332;5.614;2022-12-07T15:23:49;4.75;;;2.00;;
48635;SDS011;34429;52.332;5.614;2022-12-07T15:26:20;6.57;;;2.05;;
48635;SDS011;34429;52.332;5.614;2022-12-07T15:28:49;4.18;;;1.55;;
48635;SDS011;34429;52.332;5.614;2022-12-07T15:31:17;4.33;;;2.00;;
48635;SDS011;34429;52.332;5.614;2022-12-07T15:33:45;6.38;;;2.05;;
48635;SDS011;34429;52.332;5.614;2022-12-07T15:36:18;7.15;;;1.65;;
48635;SDS011;34429;52.332;5.614;2022-12-07T15:38:48;4.00;;;1.48;;
48635;SDS011;34429;52.332;5.614;2022-12-07T15:41:20;2.38;;;1.10;;
48635;SDS011;34429;52.332;5.614;2022-12-07T15:43:48;6.35;;;1.70;;
48635;SDS011;34429;52.332;5.614;2022-12-07T15:46:30;4.80;;;1.45;;
48635;SDS011;34429;52.332;5.614;2022-12-07T15:48:58;8.75;;;1.80;;
48635;SDS011;34429;52.332;5.614;2022-12-07T15:51:27;2.30;;;1.40;;